Time,TemperatureF,DewpointF,PressureIn,WindDirection,WindDirectionDegrees,WindSpeedMPH,WindSpeedGustMPH,Humidity,HourlyPrecipIn,Conditions,Clouds,dailyrainin,SolarRadiationWatts/m^2,SoftwareType,DateUTC
2013-02-02 00:02:00,32.0,-2.0,-100.00,NW,323,5.0,15.0,23,0.00,,,0.00,0.000000,,2013-02-02 07:02:00,
2013-02-02 00:11:00,32.0,-2.0,-100.00,NW,323,5.0,15.0,23,0.00,,,0.00,0.000000,,2013-02-02 07:11:00,
2013-02-02 00:21:00,32.0,-2.0,-100.00,NW,323,5.0,15.0,23,0.00,,,0.00,0.000000,,2013-02-02 07:21:00,
2013-02-02 00:42:00,27.0,4.0,-100.00,SW,232,2.0,13.0,37,0.00,,,0.00,0.000000,,2013-02-02 07:42:00,
2013-02-02 00:52:00,27.0,4.0,-100.00,SW,232,2.0,13.0,37,0.00,,,0.00,0.000000,,2013-02-02 07:52:00,
2013-02-02 01:01:00,27.0,4.0,-100.00,SW,232,2.0,13.0,37,0.00,,,0.00,0.000000,,2013-02-02 08:01:00,
2013-02-02 01:11:00,27.0,4.0,-100.00,SW,232,2.0,13.0,37,0.00,,,0.00,0.000000,,2013-02-02 08:11:00,
2013-02-02 01:21:00,27.0,4.0,-100.00,SW,232,2.0,13.0,37,0.00,,,0.00,0.000000,,2013-02-02 08:21:00,
2013-02-02 01:42:00,24.0,6.0,-100.00,NW,313,3.0,5.0,45,0.00,,,0.00,0.000000,,2013-02-02 08:42:00,
2013-02-02 01:53:00,24.0,6.0,-100.00,NW,313,3.0,5.0,45,0.00,,,0.00,0.000000,,2013-02-02 08:53:00,
2013-02-02 02:01:00,24.0,6.0,-100.00,NW,313,3.0,5.0,45,0.00,,,0.00,0.000000,,2013-02-02 09:01:00,
2013-02-02 02:11:00,24.0,6.0,-100.00,NW,313,3.0,5.0,45,0.00,,,0.00,0.000000,,2013-02-02 09:11:00,
2013-02-02 02:22:00,24.0,6.0,-100.00,NW,313,3.0,5.0,45,0.00,,,0.00,0.000000,,2013-02-02 09:22:00,
2013-02-02 02:42:00,23.0,4.0,-100.00,NW,313,3.0,5.0,44,0.00,,,0.00,0.000000,,2013-02-02 09:42:00,
2013-02-02 02:52:00,23.0,4.0,-100.00,NW,313,3.0,5.0,44,0.00,,,0.00,0.000000,,2013-02-02 09:52:00,
2013-02-02 03:01:00,23.0,4.0,-100.00,NW,313,3.0,5.0,44,0.00,,,0.00,0.000000,,2013-02-02 10:01:00,
2013-02-02 03:11:00,23.0,4.0,-100.00,NW,313,3.0,5.0,44,0.00,,,0.00,0.000000,,2013-02-02 10:11:00,
2013-02-02 03:21:00,23.0,4.0,-100.00,NW,313,3.0,5.0,44,0.00,,,0.00,0.000000,,2013-02-02 10:21:00,
2013-02-02 03:42:00,22.0,4.0,-100.00,NW,310,3.0,5.0,45,0.00,,,0.00,0.000000,,2013-02-02 10:42:00,
2013-02-02 03:52:00,22.0,4.0,-100.00,NW,310,3.0,5.0,45,0.00,,,0.00,0.000000,,2013-02-02 10:52:00,
2013-02-02 04:01:00,22.0,4.0,-100.00,NW,310,3.0,5.0,45,0.00,,,0.00,0.000000,,2013-02-02 11:01:00,
2013-02-02 04:11:00,22.0,4.0,-100.00,NW,310,3.0,5.0,45,0.00,,,0.00,0.000000,,2013-02-02 11:11:00,
2013-02-02 04:21:00,22.0,4.0,-100.00,NW,310,3.0,5.0,45,0.00,,,0.00,0.000000,,2013-02-02 11:21:00,
2013-02-02 04:42:00,22.0,3.0,-100.00,NW,317,3.0,5.0,43,0.00,,,-99.99,0.000000,,2013-02-02 11:42:00,
2013-02-02 04:52:00,22.0,3.0,-100.00,NW,317,3.0,5.0,43,0.00,,,-99.99,0.000000,,2013-02-02 11:52:00,
2013-02-02 05:02:00,22.0,3.0,-100.00,NW,317,3.0,5.0,43,0.00,,,-99.99,0.000000,,2013-02-02 12:02:00,
2013-02-02 05:11:00,22.0,3.0,-100.00,NW,317,3.0,5.0,43,0.00,,,-99.99,0.000000,,2013-02-02 12:11:00,
2013-02-02 05:22:00,22.0,3.0,-100.00,NW,317,3.0,5.0,43,0.00,,,-99.99,0.000000,,2013-02-02 12:22:00,
2013-02-02 05:42:00,19.0,2.0,-100.00,WNW,283,2.0,4.0,46,0.00,,,0.00,0.000000,,2013-02-02 12:42:00,
2013-02-02 05:52:00,19.0,2.0,-100.00,WNW,283,2.0,4.0,46,0.00,,,0.00,0.000000,,2013-02-02 12:52:00,
2013-02-02 06:03:00,19.0,2.0,-100.00,WNW,283,2.0,4.0,46,0.00,,,0.00,0.000000,,2013-02-02 13:03:00,
2013-02-02 06:11:00,19.0,2.0,-100.00,WNW,283,2.0,4.0,46,0.00,,,0.00,0.000000,,2013-02-02 13:11:00,
2013-02-02 06:21:00,19.0,2.0,-100.00,WNW,283,2.0,4.0,46,0.00,,,0.00,0.000000,,2013-02-02 13:21:00,
2013-02-02 06:42:00,19.0,3.0,-100.00,NW,311,3.0,4.0,48,0.00,,,0.00,0.000000,,2013-02-02 13:42:00,
2013-02-02 06:52:00,19.0,3.0,-100.00,NW,311,3.0,4.0,48,0.00,,,0.00,0.000000,,2013-02-02 13:52:00,
2013-02-02 07:02:00,19.0,3.0,-100.00,NW,311,3.0,4.0,48,0.00,,,0.00,0.000000,,2013-02-02 14:02:00,
2013-02-02 07:11:00,19.0,3.0,-100.00,NW,311,3.0,4.0,48,0.00,,,0.00,0.000000,,2013-02-02 14:11:00,
2013-02-02 07:22:00,19.0,3.0,-100.00,NW,311,3.0,4.0,48,0.00,,,0.00,0.000000,,2013-02-02 14:22:00,
2013-02-02 07:42:00,18.0,2.0,-100.00,WNW,285,2.0,3.0,48,0.00,,,-99.99,7.000000,,2013-02-02 14:42:00,
2013-02-02 07:52:00,18.0,2.0,-100.00,WNW,285,2.0,3.0,48,0.00,,,-99.99,7.000000,,2013-02-02 14:52:00,
2013-02-02 08:03:00,18.0,2.0,-100.00,WNW,285,2.0,3.0,48,0.00,,,-99.99,7.000000,,2013-02-02 15:03:00,
2013-02-02 08:12:00,18.0,2.0,-100.00,WNW,285,2.0,3.0,48,0.00,,,-99.99,7.000000,,2013-02-02 15:12:00,
2013-02-02 08:22:00,18.0,2.0,-100.00,WNW,285,2.0,3.0,48,0.00,,,-99.99,7.000000,,2013-02-02 15:22:00,
2013-02-02 08:42:00,28.0,5.0,-100.00,NNE,25,2.0,4.0,37,0.00,,,0.00,228.000000,,2013-02-02 15:42:00,
2013-02-02 08:52:00,28.0,5.0,-100.00,NNE,25,2.0,4.0,37,0.00,,,0.00,228.000000,,2013-02-02 15:52:00,
2013-02-02 09:03:00,28.0,5.0,-100.00,NNE,25,2.0,4.0,37,0.00,,,0.00,228.000000,,2013-02-02 16:03:00,
2013-02-02 09:11:00,28.0,5.0,-100.00,NNE,25,2.0,4.0,37,0.00,,,0.00,228.000000,,2013-02-02 16:11:00,
2013-02-02 09:22:00,28.0,5.0,-100.00,NNE,25,2.0,4.0,37,0.00,,,0.00,228.000000,,2013-02-02 16:22:00,
2013-02-02 09:42:00,35.0,7.0,-100.00,SE,146,3.0,5.0,30,0.00,,,0.00,470.000000,,2013-02-02 16:42:00,
2013-02-02 09:52:00,35.0,7.0,-100.00,SE,146,3.0,5.0,30,0.00,,,0.00,470.000000,,2013-02-02 16:52:00,
2013-02-02 10:02:00,35.0,7.0,-100.00,SE,146,3.0,5.0,30,0.00,,,0.00,470.000000,,2013-02-02 17:02:00,
2013-02-02 10:11:00,35.0,7.0,-100.00,SE,146,3.0,5.0,30,0.00,,,0.00,470.000000,,2013-02-02 17:11:00,
2013-02-02 10:22:00,35.0,7.0,-100.00,SE,146,3.0,5.0,30,0.00,,,0.00,470.000000,,2013-02-02 17:22:00,
2013-02-02 10:42:00,37.0,8.0,-100.00,SE,136,3.0,7.0,29,0.00,,,0.00,659.000000,,2013-02-02 17:42:00,
2013-02-02 10:52:00,37.0,8.0,-100.00,SE,136,3.0,7.0,29,0.00,,,0.00,659.000000,,2013-02-02 17:52:00,
2013-02-02 11:02:00,37.0,8.0,-100.00,SE,136,3.0,7.0,29,0.00,,,0.00,659.000000,,2013-02-02 18:02:00,
2013-02-02 11:12:00,37.0,8.0,-100.00,SE,136,3.0,7.0,29,0.00,,,0.00,659.000000,,2013-02-02 18:12:00,
2013-02-02 11:22:00,37.0,8.0,-100.00,SE,136,3.0,7.0,29,0.00,,,0.00,659.000000,,2013-02-02 18:22:00,
2013-02-02 11:42:00,39.0,5.0,-100.00,SE,131,4.0,6.0,24,0.00,,,0.00,780.000000,,2013-02-02 18:42:00,
2013-02-02 11:52:00,39.0,5.0,-100.00,SE,131,4.0,6.0,24,0.00,,,0.00,780.000000,,2013-02-02 18:52:00,
2013-02-02 12:02:00,39.0,5.0,-100.00,SE,131,4.0,6.0,24,0.00,,,0.00,780.000000,,2013-02-02 19:02:00,
2013-02-02 12:12:00,39.0,5.0,-100.00,SE,131,4.0,6.0,24,0.00,,,0.00,780.000000,,2013-02-02 19:12:00,
2013-02-02 12:21:00,39.0,5.0,-100.00,SE,131,4.0,6.0,24,0.00,,,0.00,780.000000,,2013-02-02 19:21:00,
2013-02-02 12:42:00,43.0,7.0,-100.00,SE,142,2.0,5.0,22,0.00,,,0.00,818.000000,,2013-02-02 19:42:00,
2013-02-02 12:52:00,43.0,7.0,-100.00,SE,142,2.0,5.0,22,0.00,,,0.00,818.000000,,2013-02-02 19:52:00,
2013-02-02 13:01:00,43.0,7.0,-100.00,SE,142,2.0,5.0,22,0.00,,,0.00,818.000000,,2013-02-02 20:01:00,
2013-02-02 13:11:00,43.0,7.0,-100.00,SE,142,2.0,5.0,22,0.00,,,0.00,818.000000,,2013-02-02 20:11:00,
2013-02-02 13:21:00,43.0,7.0,-100.00,SE,142,2.0,5.0,22,0.00,,,0.00,818.000000,,2013-02-02 20:21:00,
2013-02-02 13:42:00,47.0,7.0,-100.00,SE,124,2.0,5.0,19,0.00,,,0.00,732.000000,,2013-02-02 20:42:00,
2013-02-02 13:52:00,47.0,7.0,-100.00,SE,124,2.0,5.0,19,0.00,,,0.00,732.000000,,2013-02-02 20:52:00,
2013-02-02 14:02:00,47.0,7.0,-100.00,SE,124,2.0,5.0,19,0.00,,,0.00,732.000000,,2013-02-02 21:02:00,
2013-02-02 14:11:00,47.0,7.0,-100.00,SE,124,2.0,5.0,19,0.00,,,0.00,732.000000,,2013-02-02 21:11:00,
2013-02-02 14:21:00,47.0,7.0,-100.00,SE,124,2.0,5.0,19,0.00,,,0.00,732.000000,,2013-02-02 21:21:00,
2013-02-02 14:42:00,48.0,5.0,-100.00,WSW,256,2.0,6.0,17,0.00,,,0.00,580.000000,,2013-02-02 21:42:00,
2013-02-02 14:52:00,48.0,5.0,-100.00,WSW,256,2.0,6.0,17,0.00,,,0.00,580.000000,,2013-02-02 21:52:00,
2013-02-02 15:02:00,48.0,5.0,-100.00,WSW,256,2.0,6.0,17,0.00,,,0.00,580.000000,,2013-02-02 22:02:00,
2013-02-02 15:12:00,48.0,5.0,-100.00,WSW,256,2.0,6.0,17,0.00,,,0.00,580.000000,,2013-02-02 22:12:00,
2013-02-02 15:21:00,48.0,5.0,-100.00,WSW,256,2.0,6.0,17,0.00,,,0.00,580.000000,,2013-02-02 22:21:00,
2013-02-02 15:42:00,46.0,1.0,-100.00,WNW,289,2.0,6.0,15,0.00,,,0.00,416.000000,,2013-02-02 22:42:00,
2013-02-02 15:52:00,46.0,1.0,-100.00,WNW,289,2.0,6.0,15,0.00,,,0.00,416.000000,,2013-02-02 22:52:00,
2013-02-02 16:02:00,46.0,1.0,-100.00,WNW,289,2.0,6.0,15,0.00,,,0.00,416.000000,,2013-02-02 23:02:00,
2013-02-02 16:11:00,46.0,1.0,-100.00,WNW,289,2.0,6.0,15,0.00,,,0.00,416.000000,,2013-02-02 23:11:00,
2013-02-02 16:21:00,46.0,1.0,-100.00,WNW,289,2.0,6.0,15,0.00,,,0.00,416.000000,,2013-02-02 23:21:00,
2013-02-02 16:42:00,38.0,6.0,-100.00,West,272,1.0,3.0,26,0.00,,,0.00,168.000000,,2013-02-02 23:42:00,
2013-02-02 16:52:00,38.0,6.0,-100.00,West,272,1.0,3.0,26,0.00,,,0.00,168.000000,,2013-02-02 23:52:00,
2013-02-02 17:02:00,38.0,6.0,-100.00,West,272,1.0,3.0,26,0.00,,,0.00,168.000000,,2013-02-03 00:02:00,
2013-02-02 17:11:00,38.0,6.0,-100.00,West,272,1.0,3.0,26,0.00,,,0.00,168.000000,,2013-02-03 00:11:00,
2013-02-02 17:21:00,38.0,6.0,-100.00,West,272,1.0,3.0,26,0.00,,,0.00,168.000000,,2013-02-03 00:21:00,
2013-02-02 17:42:00,33.0,5.0,-100.00,West,265,3.0,7.0,30,0.00,,,-99.99,46.000000,,2013-02-03 00:42:00,
2013-02-02 17:52:00,33.0,5.0,-100.00,West,265,3.0,7.0,30,0.00,,,-99.99,46.000000,,2013-02-03 00:52:00,
2013-02-02 18:02:00,33.0,5.0,-100.00,West,265,3.0,7.0,30,0.00,,,-99.99,46.000000,,2013-02-03 01:02:00,
2013-02-02 18:11:00,33.0,5.0,-100.00,West,265,3.0,7.0,30,0.00,,,-99.99,46.000000,,2013-02-03 01:11:00,
2013-02-02 18:21:00,33.0,5.0,-100.00,West,265,3.0,7.0,30,0.00,,,-99.99,46.000000,,2013-02-03 01:21:00,
2013-02-02 18:42:00,32.0,1.0,-100.00,NNW,340,2.0,4.0,26,0.00,,,0.00,1.000000,,2013-02-03 01:42:00,
2013-02-02 18:52:00,32.0,1.0,-100.00,NNW,340,2.0,4.0,26,0.00,,,0.00,1.000000,,2013-02-03 01:52:00,
2013-02-02 19:01:00,32.0,1.0,-100.00,NNW,340,2.0,4.0,26,0.00,,,0.00,1.000000,,2013-02-03 02:01:00,
2013-02-02 19:11:00,32.0,1.0,-100.00,NNW,340,2.0,4.0,26,0.00,,,0.00,1.000000,,2013-02-03 02:11:00,
2013-02-02 19:21:00,32.0,1.0,-100.00,NNW,340,2.0,4.0,26,0.00,,,0.00,1.000000,,2013-02-03 02:21:00,
2013-02-02 19:42:00,26.0,7.0,-100.00,WNW,296,2.0,3.0,43,0.00,,,0.00,0.000000,,2013-02-03 02:42:00,
2013-02-02 19:52:00,26.0,7.0,-100.00,WNW,296,2.0,3.0,43,0.00,,,0.00,0.000000,,2013-02-03 02:52:00,
2013-02-02 20:02:00,26.0,7.0,-100.00,WNW,296,2.0,3.0,43,0.00,,,0.00,0.000000,,2013-02-03 03:02:00,
2013-02-02 20:11:00,26.0,7.0,-100.00,WNW,296,2.0,3.0,43,0.00,,,0.00,0.000000,,2013-02-03 03:11:00,
2013-02-02 20:21:00,26.0,7.0,-100.00,WNW,296,2.0,3.0,43,0.00,,,0.00,0.000000,,2013-02-03 03:21:00,
2013-02-02 20:42:00,25.0,6.0,-100.00,WNW,303,2.0,3.0,44,0.00,,,0.00,0.000000,,2013-02-03 03:42:00,
2013-02-02 20:52:00,25.0,6.0,-100.00,WNW,303,2.0,3.0,44,0.00,,,0.00,0.000000,,2013-02-03 03:52:00,
2013-02-02 21:01:00,25.0,6.0,-100.00,WNW,303,2.0,3.0,44,0.00,,,0.00,0.000000,,2013-02-03 04:01:00,
2013-02-02 21:11:00,25.0,6.0,-100.00,WNW,303,2.0,3.0,44,0.00,,,0.00,0.000000,,2013-02-03 04:11:00,
2013-02-02 21:21:00,25.0,6.0,-100.00,WNW,303,2.0,3.0,44,0.00,,,0.00,0.000000,,2013-02-03 04:21:00,
2013-02-02 21:42:00,25.0,6.0,-100.00,WNW,292,3.0,3.0,44,0.00,,,0.00,0.000000,,2013-02-03 04:42:00,
2013-02-02 21:52:00,25.0,6.0,-100.00,WNW,292,3.0,3.0,44,0.00,,,0.00,0.000000,,2013-02-03 04:52:00,
2013-02-02 22:03:00,25.0,6.0,-100.00,WNW,292,3.0,3.0,44,0.00,,,0.00,0.000000,,2013-02-03 05:03:00,
2013-02-02 22:12:00,25.0,6.0,-100.00,WNW,292,3.0,3.0,44,0.00,,,0.00,0.000000,,2013-02-03 05:12:00,
2013-02-02 22:22:00,25.0,6.0,-100.00,WNW,292,3.0,3.0,44,0.00,,,0.00,0.000000,,2013-02-03 05:22:00,
2013-02-02 22:42:00,24.0,3.0,-100.00,SW,227,2.0,3.0,40,0.00,,,0.00,0.000000,,2013-02-03 05:42:00,
2013-02-02 22:52:00,24.0,3.0,-100.00,SW,227,2.0,3.0,40,0.00,,,0.00,0.000000,,2013-02-03 05:52:00,
2013-02-02 23:02:00,24.0,3.0,-100.00,SW,227,2.0,3.0,40,0.00,,,0.00,0.000000,,2013-02-03 06:02:00,
2013-02-02 23:11:00,24.0,3.0,-100.00,SW,227,2.0,3.0,40,0.00,,,0.00,0.000000,,2013-02-03 06:11:00,
2013-02-02 23:21:00,24.0,3.0,-100.00,SW,227,2.0,3.0,40,0.00,,,0.00,0.000000,,2013-02-03 06:21:00,
2013-02-02 23:42:00,23.0,4.0,-100.00,SW,220,2.0,4.0,44,0.00,,,0.00,0.000000,,2013-02-03 06:42:00,
2013-02-02 23:52:00,23.0,4.0,-100.00,SW,220,2.0,4.0,44,0.00,,,0.00,0.000000,,2013-02-03 06:52:00,